Time;durP1;ratioP1;P1;durP2;ratioP2;P2;SDS_P1;SDS_P2;PMS_P1;PMS_P2;Temp;Humidity;BMP_temperature;BMP_pressure;BME280_temperature;BME280_humidity;BME280_pressure;Samples;Min_cycle;Max_cycle;Signal;HPM_P1;HPM_P2
2023/05/17 00:02:09;;;;;;;7.00;4.00;;;;;;;14.72;56.24;100954.92;107493;1251;99065;-65
2023/05/17 00:04:37;;;;;;;8.40;3.40;;;;;;;14.69;56.50;100961.73;107558;1253;99544;-66
2023/05/17 00:07:06;;;;;;;7.50;3.90;;;;;;;14.61;56.63;100957.27;107673;1253;113262;-65
2023/05/17 00:09:35;;;;;;;8.40;4.50;;;;;;;14.50;57.20;100956.83;107611;1254;109744;-67
2023/05/17 00:12:06;;;;;;;8.00;4.00;;;;;;;14.44;57.44;100962.13;107654;1254;107647;-70
2023/05/17 00:14:35;;;;;;;7.90;4.20;;;;;;;14.43;57.46;100959.52;107520;1251;99204;-67
2023/05/17 00:17:04;;;;;;;6.90;3.60;;;;;;;14.45;57.51;100958.79;107603;1257;99061;-68
2023/05/17 00:19:33;;;;;;;7.80;3.60;;;;;;;14.46;57.70;100961.36;107673;1251;112799;-67
2023/05/17 00:22:01;;;;;;;9.70;4.20;;;;;;;14.45;58.06;100964.04;107510;1251;109949;-69
2023/05/17 00:24:30;;;;;;;14.70;4.00;;;;;;;14.42;58.20;100966.44;107563;1254;107583;-67
2023/05/17 00:26:59;;;;;;;11.40;4.40;;;;;;;14.38;58.12;100968.30;107620;1254;99182;-66
2023/05/17 00:29:27;;;;;;;13.10;4.10;;;;;;;14.39;58.14;100968.04;107570;1251;99133;-66
2023/05/17 00:31:56;;;;;;;11.90;4.50;;;;;;;14.43;58.24;100970.03;107498;1251;112127;-65
2023/05/17 00:34:25;;;;;;;6.30;3.70;;;;;;;14.46;58.45;100972.73;107536;1256;107679;-66
2023/05/17 00:36:53;;;;;;;12.40;4.00;;;;;;;14.44;58.54;100974.61;107634;1256;108269;-65
2023/05/17 00:39:21;;;;;;;11.70;3.90;;;;;;;14.45;58.32;100978.48;107409;1254;99137;-67
2023/05/17 00:41:50;;;;;;;13.00;3.70;;;;;;;14.49;58.62;100983.83;107633;1254;99143;-66
2023/05/17 00:44:19;;;;;;;10.60;3.60;;;;;;;14.51;58.46;100983.64;107620;1251;112575;-65
2023/05/17 00:46:49;;;;;;;11.00;3.70;;;;;;;14.55;58.54;100978.13;107593;1251;110929;-66
2023/05/17 00:49:18;;;;;;;10.00;4.20;;;;;;;14.62;58.74;100984.70;107591;1251;108117;-67
2023/05/17 00:51:47;;;;;;;19.70;9.10;;;;;;;14.66;58.80;100979.06;107561;1251;99188;-66
2023/05/17 00:54:17;;;;;;;10.50;5.20;;;;;;;14.69;58.64;100980.66;107540;1251;99704;-67
2023/05/17 00:56:46;;;;;;;14.00;6.00;;;;;;;14.74;58.67;100982.18;107600;1256;112684;-67
2023/05/17 00:59:16;;;;;;;15.40;5.80;;;;;;;14.77;58.66;100977.39;107584;1251;109361;-68
2023/05/17 01:01:47;;;;;;;10.90;3.70;;;;;;;14.80;58.71;100979.20;107510;1251;108660;-66
2023/05/17 01:04:16;;;;;;;9.80;4.10;;;;;;;14.80;58.42;100985.23;107568;1253;99266;-68
2023/05/17 01:06:46;;;;;;;9.90;4.20;;;;;;;14.82;58.45;100979.23;107582;1251;99704;-67
2023/05/17 01:09:16;;;;;;;7.70;3.50;;;;;;;14.85;58.39;100982.33;107598;1251;112506;-65
2023/05/17 01:11:55;;;;;;;6.10;3.80;;;;;;;14.84;58.42;100979.90;107623;1251;109234;-65
2023/05/17 01:14:46;;;;;;;8.80;3.90;;;;;;;14.80;58.51;100980.48;107445;1254;108395;-66
2023/05/17 01:17:34;;;;;;;11.10;3.40;;;;;;;14.82;58.57;100984.04;107594;1251;99240;-69
2023/05/17 01:20:13;;;;;;;11.10;4.00;;;;;;;14.86;58.38;100982.97;107580;1254;99079;-67
2023/05/17 01:22:50;;;;;;;9.10;3.60;;;;;;;14.90;58.45;100981.67;107656;1253;113255;-66
2023/05/17 01:25:50;;;;;;;7.40;3.60;;;;;;;14.90;58.77;100983.83;107586;1254;109106;-66
2023/05/17 01:28:21;;;;;;;11.50;3.90;;;;;;;14.90;58.71;100981.82;107442;1254;108826;-65
2023/05/17 01:30:51;;;;;;;9.80;3.80;;;;;;;14.93;58.51;100981.83;107589;1254;99167;-66
2023/05/17 01:33:20;;;;;;;9.60;3.30;;;;;;;14.96;58.24;100973.77;107585;1251;99073;-65
2023/05/17 01:35:48;;;;;;;7.50;3.30;;;;;;;14.97;58.06;100975.05;107549;1251;113321;-67
2023/05/17 01:38:17;;;;;;;11.30;4.00;;;;;;;15.02;57.83;100974.81;107542;1251;110669;-67
2023/05/17 01:41:06;;;;;;;8.00;4.00;;;;;;;15.06;57.70;100977.50;107567;1254;107641;-67
2023/05/17 01:43:55;;;;;;;10.70;3.80;;;;;;;15.09;57.55;100975.56;107605;1252;99181;-67
2023/05/17 01:46:46;;;;;;;17.50;4.40;;;;;;;15.10;57.39;100977.92;107629;1253;99147;-65
2023/05/17 01:49:30;;;;;;;9.60;3.90;;;;;;;15.11;57.53;100980.40;107314;1254;113148;-66
2023/05/17 01:52:07;;;;;;;8.40;3.90;;;;;;;15.10;57.31;100978.17;107471;1253;109481;-66
2023/05/17 01:54:42;;;;;;;12.90;4.60;;;;;;;15.10;57.63;100983.39;107695;1251;109112;-68
2023/05/17 01:57:13;;;;;;;11.60;4.00;;;;;;;15.08;58.24;100976.20;107610;1251;99182;-65
2023/05/17 01:59:44;;;;;;;14.70;4.70;;;;;;;15.04;58.14;100972.27;107563;1254;99167;-66
2023/05/17 02:02:13;;;;;;;8.40;4.30;;;;;;;15.01;58.09;100971.63;107584;1254;112669;-64
2023/05/17 02:04:41;;;;;;;22.50;4.60;;;;;;;14.98;58.32;100973.54;107548;1253;110145;-64
2023/05/17 02:07:10;;;;;;;12.10;4.80;;;;;;;14.95;58.42;100973.02;107616;1254;107551;-66
2023/05/17 02:09:38;;;;;;;14.20;4.70;;;;;;;14.91;58.64;100977.01;107620;1253;99175;-66
2023/05/17 02:12:07;;;;;;;10.60;6.60;;;;;;;14.89;58.56;100982.08;107501;1253;98353;-66
2023/05/17 02:14:36;;;;;;;16.90;5.10;;;;;;;14.89;58.32;100981.42;107658;1251;113127;-66
2023/05/17 02:17:04;;;;;;;10.50;4.50;;;;;;;14.88;58.40;100980.95;107639;1251;109806;-67
2023/05/17 02:19:33;;;;;;;12.00;4.60;;;;;;;14.87;58.39;100983.04;107632;1251;107994;-69
2023/05/17 02:22:02;;;;;;;8.40;4.30;;;;;;;14.86;58.50;100980.20;107631;1251;99173;-67
2023/05/17 02:24:33;;;;;;;11.40;4.50;;;;;;;14.84;58.40;100984.61;107633;1251;99237;-66
2023/05/17 02:27:02;;;;;;;12.70;5.10;;;;;;;14.81;58.28;100981.99;107649;1251;112799;-65
2023/05/17 02:29:32;;;;;;;7.70;4.50;;;;;;;14.79;58.67;100985.80;107453;1253;109886;-65
2023/05/17 02:32:01;;;;;;;12.70;5.10;;;;;;;14.75;58.93;100986.42;107677;1252;108620;-66
2023/05/17 02:34:30;;;;;;;15.90;5.10;;;;;;;14.73;58.99;100992.23;107668;1251;99173;-66
2023/05/17 02:36:58;;;;;;;15.50;4.60;;;;;;;14.71;59.14;100988.05;107628;1251;100862;-65
2023/05/17 02:39:26;;;;;;;12.40;4.80;;;;;;;14.70;59.15;100989.10;107625;1251;111881;-66
2023/05/17 02:41:55;;;;;;;8.60;4.50;;;;;;;14.66;59.44;100991.79;107632;1251;109626;-65
2023/05/17 02:44:24;;;;;;;10.10;4.90;;;;;;;14.62;59.74;100987.00;107543;1254;108851;-66
2023/05/17 02:46:53;;;;;;;10.10;4.30;;;;;;;14.59;59.93;100991.79;107636;1253;99173;-65
2023/05/17 02:49:22;;;;;;;18.10;4.80;;;;;;;14.60;59.96;100999.08;107674;1254;99789;-66
2023/05/17 02:51:50;;;;;;;11.00;5.10;;;;;;;14.62;60.73;100996.91;107622;1251;113579;-66
2023/05/17 02:54:19;;;;;;;10.90;4.20;;;;;;;14.59;61.02;101001.34;107586;1254;108798;-65
2023/05/17 02:56:48;;;;;;;11.10;3.70;;;;;;;14.59;60.89;101004.81;107651;1254;108719;-65
2023/05/17 02:59:17;;;;;;;11.80;4.40;;;;;;;14.59;60.82;101005.70;107560;1254;99216;-65
2023/05/17 03:01:47;;;;;;;12.90;4.50;;;;;;;14.60;60.97;101009.42;107689;1250;99080;-64
2023/05/17 03:04:18;;;;;;;13.50;3.80;;;;;;;14.60;61.06;101010.14;107395;1250;113032;-64
2023/05/17 03:06:49;;;;;;;12.00;4.70;;;;;;;14.62;61.66;101011.88;107652;1251;110289;-66
2023/05/17 03:09:19;;;;;;;9.30;4.40;;;;;;;14.62;62.54;101011.34;107621;1256;107980;-64
2023/05/17 03:11:50;;;;;;;14.80;5.40;;;;;;;14.61;61.89;101019.24;107622;1256;99061;-65
2023/05/17 03:14:23;;;;;;;16.40;6.70;;;;;;;14.61;61.74;101021.17;107638;1251;99081;-68
2023/05/17 03:16:51;;;;;;;11.30;4.40;;;;;;;14.64;61.75;101012.58;107633;1251;114304;-66
2023/05/17 03:19:20;;;;;;;16.70;5.10;;;;;;;14.68;61.61;101017.07;107620;1251;109708;-68
2023/05/17 03:21:50;;;;;;;11.00;4.60;;;;;;;14.71;61.56;101018.41;107460;1253;108228;-66
2023/05/17 03:24:19;;;;;;;12.50;4.60;;;;;;;14.75;61.68;101018.91;107497;1256;99415;-65
2023/05/17 03:26:48;;;;;;;8.10;4.60;;;;;;;14.80;61.89;101018.62;107609;1253;99753;-65
2023/05/17 03:29:17;;;;;;;14.10;5.00;;;;;;;14.85;61.88;101022.20;107598;1253;112484;-65
2023/05/17 03:31:46;;;;;;;8.30;4.70;;;;;;;14.91;61.96;101027.18;107624;1251;109858;-66
2023/05/17 03:34:15;;;;;;;11.30;5.30;;;;;;;14.98;62.02;101030.64;107555;1250;107547;-66
2023/05/17 03:36:44;;;;;;;10.20;4.30;;;;;;;15.07;61.99;101035.92;107593;1251;99240;-68
2023/05/17 03:39:13;;;;;;;11.30;3.80;;;;;;;15.11;61.98;101041.77;107633;1251;99309;-66
2023/05/17 03:41:42;;;;;;;16.00;4.50;;;;;;;15.13;61.86;101045.02;107632;1254;113039;-70
2023/05/17 03:44:11;;;;;;;10.30;4.50;;;;;;;15.14;61.78;101050.89;107603;1252;110017;-65
2023/05/17 03:46:39;;;;;;;9.70;4.10;;;;;;;15.18;61.88;101052.09;107594;1254;108216;-71
2023/05/17 03:49:09;;;;;;;11.50;4.50;;;;;;;15.21;61.86;101053.05;107545;1253;99258;-65
2023/05/17 03:51:39;;;;;;;9.70;4.40;;;;;;;15.25;61.88;101055.15;107505;1254;99163;-68
2023/05/17 03:54:07;;;;;;;10.00;5.10;;;;;;;15.28;62.19;101054.30;107620;1254;112489;-66
2023/05/17 03:56:35;;;;;;;11.20;4.60;;;;;;;15.29;62.52;101048.60;107481;1253;110060;-67
2023/05/17 03:59:04;;;;;;;11.80;4.80;;;;;;;15.29;62.46;101047.98;107617;1255;108177;-69
2023/05/17 04:01:32;;;;;;;14.80;4.20;;;;;;;15.31;62.10;101043.46;107573;1250;99170;-67
2023/05/17 04:04:03;;;;;;;12.30;5.60;;;;;;;15.35;62.17;101039.08;107563;1251;99173;-67
2023/05/17 04:06:32;;;;;;;24.00;5.90;;;;;;;15.36;62.00;101043.21;107591;1253;112964;-67
2023/05/17 04:09:00;;;;;;;21.80;7.00;;;;;;;15.34;61.81;101037.01;107562;1251;109053;-66
2023/05/17 04:11:29;;;;;;;19.40;6.10;;;;;;;15.39;61.82;101039.63;107572;1254;106820;-66
2023/05/17 04:13:58;;;;;;;16.60;5.70;;;;;;;15.44;61.67;101043.80;107617;1254;99355;-69
2023/05/17 04:16:27;;;;;;;16.80;5.10;;;;;;;15.49;61.46;101041.59;107558;1256;99159;-67
2023/05/17 04:18:56;;;;;;;19.80;5.00;;;;;;;15.57;61.50;101038.65;107648;1251;111981;-66
2023/05/17 04:21:24;;;;;;;15.60;5.50;;;;;;;15.62;61.55;101043.65;107572;1251;109031;-66
2023/05/17 04:23:53;;;;;;;13.30;5.40;;;;;;;15.67;61.31;101042.14;107654;1251;107341;-63
2023/05/17 04:26:24;;;;;;;20.70;5.40;;;;;;;15.70;61.27;101045.08;107622;1251;99228;-67
2023/05/17 04:28:53;;;;;;;22.80;9.30;;;;;;;15.73;61.35;101042.55;107553;1254;99220;-66
2023/05/17 04:31:22;;;;;;;25.20;9.70;;;;;;;15.73;61.46;101042.71;107647;1253;113142;-65
2023/05/17 04:33:51;;;;;;;22.00;7.70;;;;;;;15.72;61.46;101042.50;107651;1253;109051;-68
2023/05/17 04:36:20;;;;;;;14.30;5.70;;;;;;;15.73;61.80;101042.75;107577;1256;108812;-67
2023/05/17 04:38:49;;;;;;;23.70;5.80;;;;;;;15.73;61.83;101045.05;107668;1251;99248;-66
2023/05/17 04:41:19;;;;;;;20.30;5.70;;;;;;;15.75;62.21;101044.55;107658;1253;99704;-69
2023/05/17 04:43:50;;;;;;;21.40;8.50;;;;;;;15.75;62.16;101048.11;107592;1250;112061;-67
2023/05/17 04:46:25;;;;;;;14.60;5.60;;;;;;;15.77;61.99;101048.29;107634;1251;109701;-69
2023/05/17 04:48:55;;;;;;;25.30;7.20;;;;;;;15.80;62.54;101053.71;107498;1251;107278;-69
2023/05/17 04:51:25;;;;;;;13.30;5.50;;;;;;;15.84;62.43;101055.67;107539;1251;99172;-68
2023/05/17 04:53:54;;;;;;;20.20;5.70;;;;;;;15.90;62.63;101058.71;107511;1250;99812;-66
2023/05/17 04:56:23;;;;;;;15.90;5.20;;;;;;;15.93;62.42;101060.31;107620;1254;112138;-66
2023/05/17 04:58:52;;;;;;;22.10;5.80;;;;;;;15.98;62.50;101067.11;107592;1251;110143;-67
2023/05/17 05:01:21;;;;;;;21.10;5.20;;;;;;;15.98;62.47;101072.67;107613;1256;107476;-65
2023/05/17 05:03:50;;;;;;;19.20;5.70;;;;;;;15.95;62.54;101075.30;107616;1251;99169;-66
2023/05/17 05:06:20;;;;;;;19.50;4.80;;;;;;;15.94;62.54;101075.07;107628;1250;99709;-65
2023/05/17 05:08:49;;;;;;;32.90;5.80;;;;;;;16.03;62.88;101073.81;107579;1250;112966;-66
2023/05/17 05:11:18;;;;;;;14.20;5.70;;;;;;;16.09;63.29;101074.91;107578;1253;109630;-67
2023/05/17 05:13:46;;;;;;;17.60;5.60;;;;;;;16.14;62.90;101076.02;107589;1253;108773;-71
2023/05/17 05:16:15;;;;;;;13.80;5.30;;;;;;;16.20;62.63;101071.75;107560;1253;99191;-69
2023/05/17 05:18:44;;;;;;;19.10;5.70;;;;;;;16.27;62.47;101072.85;107655;1254;99192;-68
2023/05/17 05:21:13;;;;;;;19.20;5.00;;;;;;;16.35;62.19;101075.25;107557;1254;113546;-67
2023/05/17 05:23:42;;;;;;;28.50;5.70;;;;;;;16.43;61.99;101077.80;107604;1251;108791;-65
2023/05/17 05:26:11;;;;;;;22.10;5.40;;;;;;;16.54;61.90;101079.85;107569;1254;108526;-65
2023/05/17 05:28:40;;;;;;;18.50;5.10;;;;;;;16.65;61.78;101078.91;107658;1251;99089;-66
2023/05/17 05:31:08;;;;;;;53.00;7.50;;;;;;;16.72;61.51;101078.44;107490;1253;99143;-66
2023/05/17 05:33:42;;;;;;;30.60;6.80;;;;;;;16.82;61.22;101076.61;107462;1257;113153;-65
2023/05/17 05:36:10;;;;;;;46.30;7.10;;;;;;;16.90;60.94;101077.39;107610;1252;109866;-65
2023/05/17 05:38:39;;;;;;;20.90;5.40;;;;;;;17.00;60.80;101078.44;107564;1256;107637;-67
2023/05/17 05:41:08;;;;;;;32.10;6.50;;;;;;;17.08;60.55;101077.08;107517;1250;99317;-67
2023/05/17 05:43:36;;;;;;;48.50;6.80;;;;;;;17.17;60.33;101079.46;107577;1251;99777;-70
2023/05/17 05:46:06;;;;;;;13.50;5.30;;;;;;;17.23;60.27;101078.13;107576;1250;113332;-68
2023/05/17 05:48:38;;;;;;;30.10;4.80;;;;;;;17.31;59.97;101076.62;107588;1251;109268;-65
2023/05/17 05:51:07;;;;;;;17.40;5.30;;;;;;;17.44;59.92;101080.71;107613;1256;106678;-66
2023/05/17 05:53:37;;;;;;;20.60;5.20;;;;;;;17.56;59.66;101079.34;107442;1253;99202;-67
2023/05/17 05:56:05;;;;;;;13.40;5.30;;;;;;;17.71;59.62;101081.81;107622;1251;99042;-69
2023/05/17 05:58:34;;;;;;;23.30;5.50;;;;;;;17.86;59.30;101084.10;107555;1250;112057;-66
2023/05/17 06:01:04;;;;;;;20.70;6.10;;;;;;;17.98;59.21;101082.90;107550;1251;109861;-69
2023/05/17 06:03:33;;;;;;;18.50;5.80;;;;;;;18.05;58.60;101084.96;107554;1251;108916;-67
2023/05/17 06:06:05;;;;;;;29.50;5.90;;;;;;;18.10;58.52;101089.52;107547;1254;99159;-70
2023/05/17 06:08:36;;;;;;;17.70;6.00;;;;;;;18.17;58.25;101095.08;107569;1251;99691;-72
2023/05/17 06:11:04;;;;;;;22.20;6.60;;;;;;;18.22;58.26;101095.42;107601;1251;113039;-71
2023/05/17 06:13:33;;;;;;;14.70;5.60;;;;;;;18.27;58.20;101093.52;107605;1250;110209;-70
2023/05/17 06:16:05;;;;;;;23.80;7.40;;;;;;;18.33;58.20;101095.39;107604;1256;108200;-71
2023/05/17 06:18:33;;;;;;;18.70;6.20;;;;;;;18.39;58.27;101096.48;107644;1251;99200;-68
2023/05/17 06:21:02;;;;;;;23.80;6.90;;;;;;;18.47;57.97;101096.80;107593;1251;99796;-69
2023/05/17 06:23:31;;;;;;;20.20;5.50;;;;;;;18.51;57.60;101099.25;107620;1251;113741;-65
2023/05/17 06:26:00;;;;;;;23.10;5.40;;;;;;;18.55;57.42;101099.78;107598;1251;109430;-71
2023/05/17 06:28:29;;;;;;;19.40;5.30;;;;;;;18.59;57.32;101099.98;107598;1251;108369;-68
2023/05/17 06:30:57;;;;;;;18.30;4.90;;;;;;;18.66;57.39;101101.40;107577;1254;99935;-66
2023/05/17 06:33:25;;;;;;;19.80;5.10;;;;;;;18.76;57.24;101103.81;107630;1251;99051;-65
2023/05/17 06:35:55;;;;;;;18.40;5.70;;;;;;;18.88;57.13;101101.88;107630;1253;113589;-66
2023/05/17 06:38:25;;;;;;;10.70;4.80;;;;;;;19.00;56.97;101104.67;107626;1251;109873;-68
2023/05/17 06:40:54;;;;;;;16.40;4.80;;;;;;;19.14;56.59;101107.55;107585;1254;107614;-68
2023/05/17 06:43:22;;;;;;;20.00;6.20;;;;;;;19.29;56.53;101104.13;107641;1254;99179;-67
2023/05/17 06:45:51;;;;;;;29.00;5.90;;;;;;;19.41;56.21;101105.54;107578;1254;99148;-66
2023/05/17 06:48:19;;;;;;;31.70;5.70;;;;;;;19.54;55.84;101109.05;107617;1253;113185;-66
2023/05/17 06:50:48;;;;;;;27.40;5.90;;;;;;;19.66;55.62;101112.73;107643;1255;109641;-66
2023/05/17 06:53:17;;;;;;;20.90;5.30;;;;;;;19.76;55.29;101113.08;107596;1254;109262;-67
2023/05/17 06:55:45;;;;;;;15.90;4.50;;;;;;;19.88;55.35;101116.63;107595;1254;99250;-66
2023/05/17 06:58:14;;;;;;;23.50;5.60;;;;;;;20.01;55.27;101125.00;107533;1253;100917;-65
2023/05/17 07:00:42;;;;;;;37.10;6.00;;;;;;;20.17;54.78;101118.11;107595;1253;113176;-67
2023/05/17 07:03:13;;;;;;;13.40;4.80;;;;;;;20.31;54.48;101119.02;107613;1256;109754;-67
2023/05/17 07:05:42;;;;;;;12.00;4.80;;;;;;;20.44;53.56;101118.96;107617;1254;108892;-67
2023/05/17 07:08:10;;;;;;;13.50;4.30;;;;;;;20.53;53.20;101121.66;107467;1252;99285;-68
2023/05/17 07:10:39;;;;;;;15.70;4.30;;;;;;;20.67;52.85;101124.91;107498;1254;99705;-73
2023/05/17 07:13:07;;;;;;;14.70;4.00;;;;;;;20.76;52.68;101118.90;107615;1251;112822;-67
2023/05/17 07:15:35;;;;;;;20.30;6.60;;;;;;;20.82;52.07;101121.36;107637;1251;109189;-68
2023/05/17 07:18:03;;;;;;;15.80;4.50;;;;;;;20.88;52.17;101122.92;107610;1250;108533;-68
2023/05/17 07:20:32;;;;;;;26.80;6.30;;;;;;;20.92;51.86;101121.98;107600;1256;99176;-67
2023/05/17 07:23:01;;;;;;;18.20;5.70;;;;;;;20.98;51.67;101127.14;107641;1251;99296;-67
2023/05/17 07:25:30;;;;;;;24.90;4.80;;;;;;;21.09;51.61;101123.19;107588;1254;112072;-68
2023/05/17 07:27:59;;;;;;;13.50;4.70;;;;;;;21.21;50.92;101123.58;107561;1251;110105;-69
2023/05/17 07:30:28;;;;;;;25.00;5.30;;;;;;;21.28;51.10;101121.78;107598;1250;108770;-68
2023/05/17 07:32:56;;;;;;;24.20;4.90;;;;;;;21.37;50.86;101124.38;107531;1251;99281;-70
2023/05/17 07:35:24;;;;;;;16.70;4.10;;;;;;;21.45;50.47;101122.28;107626;1251;99258;-68
2023/05/17 07:37:53;;;;;;;15.50;5.60;;;;;;;21.47;50.34;101128.77;107621;1254;114149;-70
2023/05/17 07:40:21;;;;;;;23.50;4.90;;;;;;;21.51;49.95;101125.66;107591;1252;109920;-70
2023/05/17 07:42:50;;;;;;;16.30;4.00;;;;;;;21.57;50.35;101122.38;107592;1254;108139;-67
2023/05/17 07:45:18;;;;;;;19.90;5.10;;;;;;;21.70;50.11;101127.33;107594;1254;99153;-69
2023/05/17 07:47:48;;;;;;;22.20;5.20;;;;;;;21.78;49.41;101130.27;107618;1253;99067;-68
2023/05/17 07:50:17;;;;;;;19.80;4.50;;;;;;;21.85;49.46;101130.40;107582;1253;112326;-68
2023/05/17 07:52:45;;;;;;;14.90;3.90;;;;;;;21.96;49.15;101132.47;107624;1251;109719;-67
2023/05/17 07:55:16;;;;;;;15.20;4.10;;;;;;;22.06;48.49;101138.29;107616;1251;108226;-68
2023/05/17 07:57:46;;;;;;;18.40;4.40;;;;;;;22.05;48.06;101137.63;107555;1254;99241;-67
2023/05/17 08:00:18;;;;;;;22.00;4.50;;;;;;;22.06;48.18;101138.80;106763;1252;1010520;-68
2023/05/17 08:02:46;;;;;;;15.70;3.80;;;;;;;22.10;48.06;101138.11;107623;1254;113252;-70
2023/05/17 08:05:17;;;;;;;17.20;3.60;;;;;;;22.19;48.26;101143.15;107624;1254;109679;-72
2023/05/17 08:07:46;;;;;;;21.10;4.50;;;;;;;22.26;48.00;101138.41;107607;1255;108474;-70
2023/05/17 08:10:15;;;;;;;13.60;3.60;;;;;;;22.34;48.22;101135.70;107618;1252;99171;-68
2023/05/17 08:12:45;;;;;;;19.60;3.90;;;;;;;22.45;47.84;101139.91;107668;1251;99164;-69
2023/05/17 08:15:15;;;;;;;17.60;4.50;;;;;;;22.57;47.36;101133.98;107597;1251;113839;-69
2023/05/17 08:17:44;;;;;;;19.80;4.10;;;;;;;22.61;46.83;101134.45;107590;1251;110161;-68
2023/05/17 08:20:12;;;;;;;17.70;4.80;;;;;;;22.62;46.67;101137.77;107569;1251;108884;-70
2023/05/17 08:22:41;;;;;;;29.80;10.50;;;;;;;22.65;46.46;101136.83;107632;1254;99332;-66
2023/05/17 08:25:10;;;;;;;22.80;4.30;;;;;;;22.69;46.57;101139.59;107621;1251;99300;-66
2023/05/17 08:27:40;;;;;;;13.80;4.10;;;;;;;22.78;46.32;101133.65;107552;1254;113050;-66
2023/05/17 08:30:09;;;;;;;9.60;3.90;;;;;;;22.84;45.73;101137.15;107591;1251;109174;-67
2023/05/17 08:32:45;;;;;;;19.30;4.00;;;;;;;22.93;45.61;101138.98;107535;1251;108330;-67
2023/05/17 08:35:13;;;;;;;17.70;4.20;;;;;;;23.04;45.30;101136.67;107593;1251;99161;-66
2023/05/17 08:37:42;;;;;;;17.60;4.30;;;;;;;23.10;45.16;101133.67;107589;1251;99797;-69
2023/05/17 08:40:10;;;;;;;12.80;4.00;;;;;;;23.14;44.89;101135.55;107656;1251;111837;-66
2023/05/17 08:42:40;;;;;;;17.10;3.80;;;;;;;23.16;44.41;101132.24;107605;1254;110860;-68
2023/05/17 08:45:10;;;;;;;17.80;3.80;;;;;;;23.15;44.41;101131.49;107613;1254;106228;-68
2023/05/17 08:47:41;;;;;;;9.30;4.20;;;;;;;23.27;44.24;101130.12;107607;1251;99279;-68
2023/05/17 08:50:11;;;;;;;16.40;5.90;;;;;;;23.29;43.56;101128.01;107624;1251;99150;-67
2023/05/17 08:52:43;;;;;;;14.50;4.80;;;;;;;23.36;43.84;101130.53;107634;1251;113351;-67
2023/05/17 08:55:15;;;;;;;25.60;4.80;;;;;;;23.48;43.26;101130.39;107612;1251;109879;-66
2023/05/17 08:57:44;;;;;;;16.80;3.50;;;;;;;23.57;43.31;101126.73;107628;1254;106733;-67
2023/05/17 09:00:18;;;;;;;29.30;4.00;;;;;;;23.65;42.68;101129.42;107598;1251;99170;-67
2023/05/17 09:02:48;;;;;;;14.20;3.50;;;;;;;23.67;42.19;101127.62;107508;1253;99749;-67
2023/05/17 09:05:16;;;;;;;14.10;3.30;;;;;;;23.70;42.23;101126.59;107661;1250;112764;-69
2023/05/17 09:07:47;;;;;;;14.20;3.30;;;;;;;23.76;41.99;101123.91;107617;1254;110110;-69
2023/05/17 09:10:16;;;;;;;17.80;3.60;;;;;;;23.87;41.45;101120.58;107626;1254;108671;-70
2023/05/17 09:12:44;;;;;;;11.20;3.50;;;;;;;24.04;41.08;101121.52;107556;1253;99243;-66
2023/05/17 09:15:16;;;;;;;19.00;3.50;;;;;;;24.25;41.11;101124.02;107664;1255;99259;-69
2023/05/17 09:17:55;;;;;;;15.30;3.40;;;;;;;24.38;40.29;101118.58;107656;1254;113256;-67
2023/05/17 09:20:32;;;;;;;10.30;3.00;;;;;;;24.35;40.03;101122.38;107653;1254;110110;-67
2023/05/17 09:23:06;;;;;;;6.90;2.90;;;;;;;24.30;39.81;101120.77;107615;1251;106964;-66
2023/05/17 09:25:35;;;;;;;15.60;3.00;;;;;;;24.26;40.00;101123.91;107587;1253;99147;-67
2023/05/17 09:28:09;;;;;;;6.10;2.70;;;;;;;24.27;40.20;101120.20;107605;1251;99158;-66
2023/05/17 09:30:38;;;;;;;;;;;;;;;24.27;39.93;101122.95;107610;1251;112186;-67
2023/05/17 09:33:08;;;;;;;27.20;3.30;;;;;;;24.27;39.97;101123.84;107574;1254;110208;-66
2023/05/17 09:35:37;;;;;;;9.70;3.10;;;;;;;24.33;39.83;101126.63;107616;1251;107964;-68
2023/05/17 09:38:08;;;;;;;10.50;2.80;;;;;;;24.32;39.25;101120.64;107596;1253;99161;-66
2023/05/17 09:40:41;;;;;;;13.50;3.00;;;;;;;24.37;39.62;101117.55;107576;1254;99706;-67
2023/05/17 09:43:11;;;;;;;16.10;3.10;;;;;;;24.49;39.33;101115.92;107619;1253;112724;-66
2023/05/17 09:45:40;;;;;;;13.30;2.80;;;;;;;24.60;39.65;101116.36;107641;1251;109439;-69
2023/05/17 09:48:15;;;;;;;18.30;2.90;;;;;;;24.73;39.02;101112.63;107626;1251;108609;-66
2023/05/17 09:50:49;;;;;;;12.10;2.80;;;;;;;24.77;39.11;101113.41;107662;1251;99240;-68
2023/05/17 09:53:38;;;;;;;14.40;3.50;;;;;;;24.81;38.92;101110.30;107643;1251;99700;-66
2023/05/17 09:56:09;;;;;;;14.20;3.40;;;;;;;24.88;39.12;101108.04;107611;1254;113501;-67
2023/05/17 09:58:37;;;;;;;18.70;3.80;;;;;;;24.98;39.07;101104.52;107645;1254;109961;-67
2023/05/17 10:01:07;;;;;;;30.10;3.50;;;;;;;25.04;38.97;101104.23;107592;1254;108374;-66
2023/05/17 10:03:37;;;;;;;13.70;3.30;;;;;;;25.10;39.07;101102.77;107632;1251;99154;-66
2023/05/17 10:06:08;;;;;;;60.10;6.10;;;;;;;25.15;38.70;101097.65;107634;1251;99224;-67
2023/05/17 10:08:50;;;;;;;17.30;3.90;;;;;;;25.14;38.36;101098.83;107681;1251;112608;-67
2023/05/17 10:11:23;;;;;;;46.10;5.20;;;;;;;25.07;37.74;101095.64;107606;1251;110237;-68
2023/05/17 10:14:04;;;;;;;26.40;4.30;;;;;;;25.04;38.01;101092.59;107593;1251;107765;-67
2023/05/17 10:16:33;;;;;;;6.70;2.80;;;;;;;25.11;38.39;101094.34;107636;1251;99266;-68
2023/05/17 10:19:04;;;;;;;17.40;4.00;;;;;;;25.17;37.74;101093.36;107577;1256;99062;-67
2023/05/17 10:21:34;;;;;;;11.10;3.20;;;;;;;25.10;37.29;101090.27;107574;1254;112139;-67
2023/05/17 10:24:03;;;;;;;15.30;3.60;;;;;;;25.05;37.50;101087.20;107616;1251;109137;-66
2023/05/17 10:26:32;;;;;;;14.90;2.80;;;;;;;25.06;37.54;101087.30;107629;1251;107563;-66
2023/05/17 10:29:02;;;;;;;18.10;4.10;;;;;;;25.04;37.06;101087.72;107649;1251;99163;-66
2023/05/17 10:31:33;;;;;;;13.30;3.00;;;;;;;24.97;37.35;101089.04;107623;1254;99191;-66
2023/05/17 10:34:04;;;;;;;23.20;3.80;;;;;;;24.95;37.15;101082.37;107647;1251;111985;-69
2023/05/17 10:36:32;;;;;;;10.10;2.40;;;;;;;24.97;36.35;101082.48;107649;1251;109197;-68
2023/05/17 10:39:01;;;;;;;17.00;3.70;;;;;;;24.92;36.31;101081.54;107649;1251;108899;-66
2023/05/17 10:41:33;;;;;;;13.50;2.90;;;;;;;24.89;36.67;101080.34;107621;1251;99294;-69
2023/05/17 10:44:04;;;;;;;10.50;2.90;;;;;;;24.94;36.27;101080.17;107641;1251;99137;-68
2023/05/17 10:46:35;;;;;;;19.80;3.40;;;;;;;24.87;35.83;101079.10;107577;1254;112371;-67
2023/05/17 10:49:04;;;;;;;14.50;2.30;;;;;;;24.89;36.10;101081.27;107601;1256;110012;-71
2023/05/17 10:51:36;;;;;;;21.40;3.50;;;;;;;24.93;35.69;101084.66;107645;1251;106900;-73
2023/05/17 10:54:07;;;;;;;14.10;3.00;;;;;;;24.96;35.70;101084.18;107646;1251;99048;-70
2023/05/17 10:56:40;;;;;;;16.30;2.90;;;;;;;25.05;35.44;101083.29;107608;1251;99047;-68
2023/05/17 10:59:15;;;;;;;;;;;;;;;25.10;35.28;101078.67;107681;1251;111962;-67
2023/05/17 11:02:04;;;;;;;15.60;3.30;;;;;;;25.18;34.38;101079.40;107605;1251;110119;-69
2023/05/17 11:04:37;;;;;;;11.90;2.80;;;;;;;25.38;34.10;101077.36;107681;1251;107681;-71
2023/05/17 11:07:15;;;;;;;20.00;3.10;;;;;;;25.39;34.51;101071.13;107616;1251;99166;-68
2023/05/17 11:09:48;;;;;;;9.70;2.90;;;;;;;25.46;34.15;101074.33;107624;1251;99063;-69
2023/05/17 11:12:31;;;;;;;18.40;2.30;;;;;;;25.39;33.76;101074.86;107650;1251;113710;-67
2023/05/17 11:15:16;;;;;;;25.40;6.40;;;;;;;25.23;34.25;101073.82;107595;1254;109049;-71
2023/05/17 11:17:52;;;;;;;12.30;3.10;;;;;;;25.25;34.55;101071.81;107615;1255;107149;-68
2023/05/17 11:20:26;;;;;;;18.70;4.20;;;;;;;25.43;34.08;101073.93;107606;1250;99173;-69
2023/05/17 11:23:01;;;;;;;13.80;2.60;;;;;;;25.88;33.99;101069.31;107663;1256;99055;-70